Latest Weather Observations for Newcastle Nobbys

IDN60901

Issued at 3:21 pm EDT Thursday 2 April 2015 (issued every 10 minutes, with the page automatically refreshed every 10 minutes)

About weather observations | Map of Sydney area stations | Latest observations for Sydney area | Other Formats
Station Details ID: 061055 Name: NEWCASTLE NOBBYS SIGNAL STATION AWS Lat: -32.92 Lon: 151.80 Height: 33.0 m
Data from the previous 72 hours. | See also: Recent months at Newcastle Nobbys
Date/Time
EDT
Tmp

°C
App
Tmp
°C
Dew
Point
°C
Rel
Hum
%
Delta-T

°C
Wind Press
QNH
hPa
Press
MSL
hPa
Rain
since
9 am
mm
Dir
 
Spd
km/h
Gust
km/h
Spd
kts
Gust
kts
02/03:00pm 25.0 25.2 19.4 71 3.6 ENE 17 20 9 11 - - 0.0
02/02:30pm 24.4 24.0 18.8 71 3.6 ENE 19 22 10 12 - - 0.0
02/02:00pm 26.1 27.0 19.2 65 4.4 ENE 13 17 7 9 - - 0.0
02/01:30pm 26.6 28.2 19.2 64 4.8 NE 9 13 5 7 - - 0.0
02/01:00pm 26.8 27.2 18.1 59 5.5 N 13 19 7 10 - - 0.0
02/12:30pm 26.1 25.9 17.5 59 5.4 NNW 15 20 8 11 - - 0.0
02/12:00pm 25.3 26.3 17.7 62 4.8 N 9 13 5 7 - - 0.0
02/11:30am 24.8 25.3 17.5 64 4.6 N 11 13 6 7 - - 0.0
02/11:00am 24.3 24.8 17.5 66 4.2 N 11 15 6 8 - - 0.0
02/10:30am 23.3 23.7 17.3 69 3.7 N 11 13 6 7 - - 0.0
02/10:00am 22.1 22.6 16.6 71 3.4 N 9 13 5 7 - - 0.0
02/09:30am 21.4 21.2 16.8 75 2.8 N 13 15 7 8 - - 0.0
02/09:00am 20.9 20.9 16.3 75 2.8 NNW 11 15 6 8 - - 0.0
02/08:30am 20.6 20.4 16.8 79 2.3 NNW 13 17 7 9 - - 0.0
02/08:00am 19.5 19.8 16.0 80 2.1 NW 9 11 5 6 - - 0.0
02/07:30am 18.8 18.3 16.0 84 1.7 N 13 15 7 8 - - 0.0
02/07:00am 18.8 19.2 16.2 85 1.6 NNW 9 13 5 7 - - 0.0
02/06:30am 19.1 19.4 16.1 83 1.8 N 9 11 5 6 - - 0.0
02/06:00am 19.0 18.8 15.7 81 2.0 N 11 13 6 7 - - 0.0
02/05:30am 19.2 19.8 15.7 80 2.1 NNW 7 11 4 6 - - 0.0
02/05:00am 19.5 18.3 15.0 75 2.6 N 15 17 8 9 - - 0.0
02/04:30am 19.3 19.2 15.0 76 2.5 N 9 13 5 7 - - 0.0
02/04:00am 19.3 18.7 15.6 79 2.2 N 13 15 7 8 - - 0.0
02/03:30am 19.9 20.1 15.7 77 2.5 N 9 13 5 7 - - 0.0
02/03:00am 20.5 19.2 15.7 74 2.9 NNE 17 20 9 11 - - 0.0
02/02:30am 21.0 20.3 16.4 75 2.8 NE 15 19 8 10 - - 0.0
02/02:00am 21.2 20.5 16.4 74 2.9 NE 15 20 8 11 - - 0.0
02/01:30am 20.9 20.5 16.1 74 2.9 NNE 13 17 7 9 - - 0.0
02/01:00am 20.6 20.7 16.4 77 2.5 NNE 11 15 6 8 - - 0.0
02/12:30am 20.5 21.4 16.5 78 2.4 NNE 7 9 4 5 - - 0.0
02/12:00am 20.7 21.1 16.3 76 2.7 N 9 13 5 7 - - 0.0
 
Date/Time
EDT
Tmp

°C
App
Tmp
°C
Dew
Point
°C
Rel
Hum
%
Delta-T

°C
Wind Press
QNH
hPa
Press
MSL
hPa
Rain
since
9 am
mm
Dir
 
Spd
km/h
Gust
km/h
Spd
kts
Gust
kts
01/11:30pm 21.6 20.6 16.6 73 3.0 NNE 17 22 9 12 - - 0.0
01/11:00pm 21.7 20.8 16.9 74 2.9 NE 17 24 9 13 - - 0.0
01/10:30pm 21.9 21.1 17.1 74 2.9 NE 17 22 9 12 - - 0.0
01/10:00pm 21.9 21.5 17.1 74 2.9 NE 15 20 8 11 - - 0.0
01/09:30pm 22.2 22.1 16.9 72 3.2 NE 13 20 7 11 - - 0.0
01/09:00pm 22.2 22.2 17.3 74 3.0 NE 13 17 7 9 - - 0.0
01/08:30pm 22.5 23.1 17.6 74 3.0 NE 11 15 6 8 - - 0.0
01/08:00pm 22.9 22.2 17.4 71 3.4 NE 17 22 9 12 - - 0.0
01/07:30pm 23.3 22.5 17.1 68 3.8 NE 17 26 9 14 - - 0.0
01/07:00pm 23.4 23.8 18.9 76 2.9 NE 15 20 8 11 - - 0.0
01/06:30pm 23.7 23.1 18.8 74 3.1 NE 20 28 11 15 - - 0.0
01/06:00pm 24.0 23.2 18.4 71 3.5 NE 20 28 11 15 - - 0.0
01/05:30pm 24.1 21.7 18.3 70 3.7 ENE 28 35 15 19 - - 0.0
01/05:00pm 23.9 21.9 19.2 75 3.0 ENE 28 33 15 18 - - 0.0
01/04:30pm 24.5 23.2 18.2 68 4.0 ENE 22 32 12 17 - - 0.0
01/04:00pm 24.1 22.9 19.2 74 3.1 E 24 30 13 16 - - 0.0
01/03:30pm 23.6 21.2 19.1 76 2.9 ENE 30 35 16 19 - - 0.0
01/03:00pm 23.6 21.9 18.9 75 3.0 ENE 26 33 14 18 - - 0.0
01/02:30pm 24.6 24.0 18.8 70 3.7 ENE 20 26 11 14 - - 0.0
01/02:00pm 25.5 23.7 16.9 59 5.3 NE 22 28 12 15 - - 0.0
01/01:30pm 25.5 25.0 17.9 63 4.8 ENE 17 20 9 11 - - 0.0
01/01:00pm 25.2 24.9 18.2 65 4.4 NE 17 26 9 14 - - 0.0
01/12:30pm 24.5 23.1 17.0 63 4.6 NNE 20 26 11 14 - - 0.0
01/12:00pm 24.4 24.7 18.8 71 3.6 NNE 15 20 8 11 - - 0.0
01/11:30am 22.9 22.9 18.9 78 2.5 NNE 17 22 9 12 - - 0.0
01/11:00am 21.6 20.7 17.8 79 2.4 NE 19 24 10 13 - - 0.0
01/10:30am 21.9 21.9 18.1 79 2.4 NE 15 28 8 15 - - 0.0
01/10:00am 21.2 22.1 19.3 89 1.2 NNE 13 17 7 9 - - 0.0
01/09:30am 20.1 22.1 19.1 94 0.6 N 7 9 4 5 - - 0.0
01/09:00am 19.5 22.0 19.0 97 0.3 N 4 6 2 3 - - 9.4
01/08:30am 17.8 18.9 17.2 96 0.4 NNW 7 9 4 5 - - 9.4
01/08:00am 17.8 18.9 17.2 96 0.4 NW 7 9 4 5 - - 9.4
01/07:30am 17.8 19.1 17.0 95 0.5 NNW 6 7 3 4 - - 9.4
01/07:00am 18.9 21.3 17.9 94 0.6 NW 2 6 1 3 - - 9.4
01/06:30am 18.9 20.9 17.9 94 0.6 W 4 6 2 3 - - 9.4
01/06:00am 19.3 22.2 18.1 93 0.7 CALM 0 4 0 2 - - 9.4
01/05:30am 19.2 21.6 18.0 93 0.7 WNW 2 2 1 1 - - 9.4
01/05:00am 19.3 21.4 18.0 92 0.8 NW 4 4 2 2 - - 9.4
01/04:30am 19.9 21.6 18.4 91 0.9 N 7 9 4 5 - - 9.4
01/04:00am 20.1 21.9 18.2 89 1.2 ENE 6 7 3 4 - - 9.4
01/03:30am 20.2 21.9 18.5 90 1.1 ESE 7 9 4 5 - - 9.4
01/03:00am 20.0 21.3 18.5 91 0.9 SE 9 13 5 7 - - 9.4
01/02:30am 19.8 22.1 18.5 92 0.8 S 4 7 2 4 - - 9.4
01/02:00am 19.0 21.3 17.7 92 0.8 W 2 4 1 2 - - 9.4
01/01:30am 19.1 21.4 17.8 92 0.8 W 2 4 1 2 - - 9.4
01/01:00am 19.2 20.8 17.9 92 0.8 WNW 6 9 3 5 - - 9.4
01/12:30am 19.6 21.8 18.3 92 0.8 WSW 4 6 2 3 - - 8.8
01/12:00am 19.6 21.1 18.1 91 0.9 W 7 7 4 4 - - 8.8
 
Date/Time
EDT
Tmp

°C
App
Tmp
°C
Dew
Point
°C
Rel
Hum
%
Delta-T

°C
Wind Press
QNH
hPa
Press
MSL
hPa
Rain
since
9 am
mm
Dir
 
Spd
km/h
Gust
km/h
Spd
kts
Gust
kts
31/11:30pm 20.2 21.9 18.0 87 1.4 NNW 6 7 3 4 - - 8.8
31/11:00pm 20.4 21.9 18.0 86 1.5 NE 7 11 4 6 - - 8.8
31/10:30pm 20.3 20.9 17.7 85 1.6 ENE 11 15 6 8 - - 8.8
31/10:00pm 20.1 19.9 17.5 85 1.6 NE 15 17 8 9 - - 8.8
31/09:30pm 20.8 21.3 18.4 86 1.5 NE 13 15 7 8 - - 8.8
31/09:00pm 21.0 21.5 18.4 85 1.6 NE 13 17 7 9 - - 8.8
31/08:30pm 21.1 20.4 18.7 86 1.5 E 20 24 11 13 - - 8.8
31/08:00pm 20.4 18.7 18.2 87 1.4 ENE 24 28 13 15 - - 8.8
31/07:30pm 20.2 19.2 18.9 92 0.8 SE 22 30 12 16 - - 8.8
31/07:00pm 19.3 16.5 18.3 94 0.6 SE 30 37 16 20 - - 8.8
31/06:51pm 19.2 15.9 18.4 95 0.5 SE 33 41 18 22 - - 8.8
31/06:30pm 19.6 15.6 17.7 89 1.2 ESE 35 50 19 27 - - 4.6
31/06:28pm 19.9 16.4 17.9 88 1.2 SE 33 44 18 24 - - 3.8
31/06:12pm 20.9 18.0 17.9 83 1.9 ESE 30 44 16 24 - - 2.2
31/06:08pm 21.3 18.4 17.9 81 2.1 ESE 30 44 16 24 - - 1.0
31/06:00pm 22.3 19.8 17.0 72 3.3 SE 26 39 14 21 - - 0.0
31/05:30pm 22.3 20.0 16.6 70 3.5 SE 24 28 13 15 - - 0.0
31/05:00pm 22.4 20.9 16.4 69 3.6 SE 19 22 10 12 - - 0.0
31/04:30pm 22.1 21.5 16.6 71 3.4 SE 15 17 8 9 - - 0.0
31/04:00pm 21.9 21.7 16.8 73 3.1 SSE 13 17 7 9 - - 0.0
31/03:30pm 22.0 22.3 16.9 73 3.1 SE 11 15 6 8 - - 0.0
31/03:00pm 21.6 21.4 16.6 73 3.0 E 13 17 7 9 - - 0.0
31/02:30pm 21.9 22.2 17.9 78 2.5 ENE 13 19 7 10 - - 0.0
31/02:00pm 19.5 20.1 16.7 84 1.7 NE 9 19 5 10 - - 0.0
31/01:30pm 20.7 18.3 16.5 77 2.5 E 24 35 13 19 - - 0.0
31/01:00pm 21.7 20.0 15.8 69 3.5 E 19 22 10 12 - - 0.0
31/12:30pm 21.7 20.6 16.4 72 3.2 E 17 22 9 12 - - 0.0
31/12:00pm 21.5 20.2 16.7 74 2.9 E 19 22 10 12 - - 0.0
31/11:30am 21.5 20.1 16.5 73 3.0 ENE 19 20 10 11 - - 0.0
31/11:00am 20.9 19.9 16.7 77 2.6 ENE 17 22 9 12 - - 0.0
31/10:30am 21.2 19.1 17.2 78 2.5 ENE 24 32 13 17 - - 0.0
31/10:00am 20.7 18.7 17.3 81 2.1 ENE 24 28 13 15 - - 0.0
31/09:30am 20.7 17.5 17.3 81 2.1 ENE 30 37 16 20 - - 0.0
31/09:00am 20.4 17.6 17.4 83 1.8 E 28 33 15 18 - - 13.8
31/08:30am 19.6 17.5 18.1 91 0.9 ESE 26 33 14 18 - - 13.8
31/08:00am 18.8 17.8 17.6 93 0.7 ESE 19 24 10 13 - - 13.4
31/07:30am 19.0 15.9 17.5 91 0.9 SE 30 39 16 21 - - 10.8
31/07:00am 19.8 16.7 17.4 86 1.5 SE 30 33 16 18 - - 7.8
31/06:30am 20.1 16.6 17.9 87 1.4 ESE 33 37 18 20 - - 7.6
31/06:00am 20.4 18.6 17.0 81 2.1 SSE 22 26 12 14 - - 7.6
31/05:30am 20.3 19.3 16.5 79 2.3 SSE 17 20 9 11 - - 7.6
31/05:00am 20.3 18.8 16.3 78 2.4 SSE 19 20 10 11 - - 7.6
31/04:30am 20.2 18.7 16.8 81 2.1 S 20 24 11 13 - - 7.6
31/04:00am 20.3 18.8 16.7 80 2.2 S 20 24 11 13 - - 7.6
31/03:30am 20.0 18.6 16.6 81 2.1 S 19 22 10 12 - - 7.6
31/03:00am 19.7 20.4 17.1 85 1.6 SSW 9 13 5 7 - - 7.6
31/02:30am 19.6 20.7 17.0 85 1.6 SSW 7 9 4 5 - - 7.6
31/02:00am 19.5 20.5 16.9 85 1.6 SSW 7 9 4 5 - - 7.6
31/01:30am 18.9 20.0 16.5 86 1.4 SW 6 7 3 4 - - 7.6
31/01:00am 18.9 20.4 16.7 87 1.3 SW 4 7 2 4 - - 7.6
31/12:30am 18.6 20.0 16.4 87 1.3 NW 4 6 2 3 - - 7.6
31/12:00am 18.4 19.1 16.2 87 1.3 NW 7 11 4 6 - - 7.6
 
Date/Time
EDT
Tmp

°C
App
Tmp
°C
Dew
Point
°C
Rel
Hum
%
Delta-T

°C
Wind Press
QNH
hPa
Press
MSL
hPa
Rain
since
9 am
mm
Dir
 
Spd
km/h
Gust
km/h
Spd
kts
Gust
kts
30/11:30pm 18.3 18.8 16.5 89 1.1 NW 9 13 5 7 - - 7.4
30/11:00pm 18.6 18.9 16.9 90 1.0 NW 11 15 6 8 - - 7.4
30/10:30pm 18.6 17.7 16.9 90 1.0 N 17 22 9 12 - - 7.2
30/10:00pm 18.7 17.3 17.0 90 1.0 N 20 26 11 14 - - 6.8
30/09:30pm 19.3 17.5 17.8 91 0.9 N 24 32 13 17 - - 6.4
30/09:00pm 19.6 19.5 17.9 90 1.0 N 15 19 8 10 - - 6.2
30/08:30pm 19.8 18.8 17.9 89 1.2 NNE 20 28 11 15 - - 6.0
30/08:00pm 20.7 20.1 18.8 89 1.2 NE 20 28 11 15 - - 5.8
30/07:30pm 21.2 21.9 18.9 87 1.4 NE 13 19 7 10 - - 5.0
30/07:00pm 21.0 19.2 18.8 87 1.4 ENE 26 37 14 20 - - 1.8
30/06:30pm 22.3 22.7 19.1 82 2.0 ENE 15 19 8 10 - - 0.0
30/06:00pm 22.1 21.1 18.9 82 2.0 ENE 22 24 12 13 - - 0.0
30/05:30pm 22.3 21.0 19.1 82 2.0 E 24 28 13 15 - - 0.0
30/05:00pm 22.6 20.9 19.0 80 2.3 E 26 30 14 16 - - 0.0
30/04:30pm 22.6 21.8 18.4 77 2.6 E 20 22 11 12 - - 0.0
30/04:00pm 22.8 21.9 18.3 76 2.8 E 20 24 11 13 - - 0.0
30/03:30pm 22.8 21.8 17.9 74 3.1 ESE 20 22 11 12 - - 0.0

Latest Capital City Observations: Canberra | Sydney | Melbourne | Brisbane | Adelaide | Perth | Hobart | Darwin

Other Formats:

Comma delimited format used in spreadsheet applications
http://www.bom.gov.au/fwo/IDN60901/IDN60901.94774.axf

JavaScript Object Notation format (JSON) in row-major order
http://www.bom.gov.au/fwo/IDN60901/IDN60901.94774.json